createdAt,value
2023-04-10T00:00:56.944Z,102037.69
2023-04-10T00:03:25.397Z,102040.44
2023-04-10T00:05:55.044Z,102040.69
2023-04-10T00:08:22.811Z,102037.06
2023-04-10T00:10:50.586Z,102036.72
2023-04-10T00:13:20.397Z,102039.19
2023-04-10T00:15:48.778Z,102034.69
2023-04-10T00:18:16.421Z,102037.78
2023-04-10T00:20:43.985Z,102035.50
2023-04-10T00:23:13.000Z,102040.03
2023-04-10T00:25:40.714Z,102033.16
2023-04-10T00:28:08.547Z,102028.88
2023-04-10T00:30:36.167Z,102026.28
2023-04-10T00:33:03.959Z,102019.38
2023-04-10T00:35:32.516Z,102012.56
2023-04-10T00:38:00.228Z,102011.47
2023-04-10T00:40:30.284Z,102009.75
2023-04-10T00:42:57.944Z,102007.69
2023-04-10T00:45:25.667Z,102006.38
2023-04-10T00:47:53.340Z,102011.66
2023-04-10T00:50:21.088Z,102003.00
2023-04-10T00:52:49.072Z,101994.00
2023-04-10T00:55:16.760Z,101998.50
2023-04-10T00:57:47.010Z,101997.78
2023-04-10T01:00:15.342Z,101996.91
2023-04-10T01:02:43.289Z,101996.16
2023-04-10T01:05:11.925Z,101989.19
2023-04-10T01:07:43.096Z,101995.19
2023-04-10T01:10:13.119Z,101997.00
2023-04-10T01:12:45.648Z,101997.22
2023-04-10T01:15:18.246Z,101999.81
2023-04-10T01:17:47.382Z,101996.25
2023-04-10T01:20:16.467Z,101997.22
2023-04-10T01:22:47.660Z,102003.22
2023-04-10T01:25:25.356Z,101996.38
2023-04-10T01:27:56.397Z,101994.56
2023-04-10T01:30:25.386Z,102000.75
2023-04-10T01:32:53.186Z,102006.03
2023-04-10T01:35:21.005Z,102003.38
2023-04-10T01:37:48.701Z,102000.09
2023-04-10T01:40:16.487Z,102002.69
2023-04-10T01:42:46.006Z,101998.28
2023-04-10T01:45:14.973Z,102006.03
2023-04-10T01:47:47.406Z,101999.03
2023-04-10T01:50:15.336Z,101998.75
2023-04-10T01:52:43.244Z,101990.31
2023-04-10T01:55:22.854Z,101986.88
2023-04-10T01:57:55.819Z,101992.13
2023-04-10T02:00:25.107Z,101991.56
2023-04-10T02:02:54.468Z,101998.56
2023-04-10T02:05:23.167Z,101991.63
2023-04-10T02:07:51.778Z,101992.38
2023-04-10T02:10:21.422Z,101996.91
2023-04-10T02:12:53.561Z,102001.53
2023-04-10T02:15:26.844Z,101998.00
2023-04-10T02:17:56.186Z,101999.72
2023-04-10T02:20:24.047Z,101991.78
2023-04-10T02:22:52.114Z,101987.41
2023-04-10T02:25:19.787Z,101989.06
2023-04-10T02:27:47.378Z,101991.56
2023-04-10T02:30:15.314Z,101994.88
2023-04-10T02:32:44.298Z,101990.06
2023-04-10T02:35:13.344Z,101992.69
2023-04-10T02:37:42.535Z,101984.13
2023-04-10T02:40:11.528Z,101993.75
2023-04-10T02:42:57.837Z,101993.78
2023-04-10T02:45:25.541Z,101994.59
2023-04-10T02:47:53.282Z,101998.94
2023-04-10T02:50:22.557Z,101996.19
2023-04-10T02:52:50.330Z,102001.31
2023-04-10T02:55:18.107Z,102004.09
2023-04-10T02:57:46.355Z,101994.63
2023-04-10T03:00:14.569Z,102003.44
2023-04-10T03:03:05.439Z,102000.03
2023-04-10T03:05:42.952Z,102000.88
2023-04-10T03:08:10.560Z,102006.09
2023-04-10T03:10:38.193Z,102003.59
2023-04-10T03:13:06.001Z,101997.47
2023-04-10T03:15:34.219Z,102000.06
2023-04-10T03:18:02.206Z,102007.03
2023-04-10T03:20:29.952Z,101999.31
2023-04-10T03:22:58.932Z,101999.34
2023-04-10T03:25:28.172Z,101991.59
2023-04-10T03:27:56.419Z,101990.72
2023-04-10T03:30:24.498Z,101990.75
2023-04-10T03:32:52.157Z,101990.78
2023-04-10T03:35:20.009Z,101988.16
2023-04-10T03:37:50.534Z,101987.31
2023-04-10T03:40:19.997Z,101982.94
2023-04-10T03:42:47.911Z,101988.13
2023-04-10T03:45:16.202Z,101987.22
2023-04-10T03:47:44.086Z,101995.03
2023-04-10T03:50:15.657Z,101991.56
2023-04-10T03:52:50.715Z,101992.38
2023-04-10T03:55:22.485Z,101991.50
2023-04-10T03:57:51.987Z,101990.63
2023-04-10T04:00:23.831Z,101987.19
2023-04-10T04:03:01.037Z,101990.63
2023-04-10T04:05:47.423Z,101998.44
2023-04-10T04:08:38.810Z,102001.81
2023-04-10T04:11:43.149Z,102000.91
2023-04-10T04:14:32.476Z,101994.84
2023-04-10T04:17:19.127Z,101990.47
2023-04-10T04:20:08.318Z,101996.50
2023-04-10T04:23:03.383Z,101994.81
2023-04-10T04:26:02.842Z,101991.34
2023-04-10T04:28:37.995Z,101999.16
2023-04-10T04:31:25.232Z,101992.13
2023-04-10T04:34:12.481Z,101996.47
2023-04-10T04:36:40.116Z,101991.28
2023-04-10T04:39:13.329Z,101995.59
2023-04-10T04:41:59.442Z,102000.72
2023-04-10T04:45:03.836Z,101996.38
2023-04-10T04:47:51.889Z,102002.38
2023-04-10T04:50:58.135Z,102001.47
2023-04-10T04:53:43.943Z,101993.69
2023-04-10T04:56:31.875Z,101998.00
2023-04-10T04:59:18.033Z,101991.88
2023-04-10T05:02:10.723Z,101997.84
2023-04-10T05:05:05.442Z,102000.34
2023-04-10T05:07:47.262Z,101997.63
2023-04-10T05:10:35.360Z,102005.28
2023-04-10T05:13:21.710Z,101989.53
2023-04-10T05:16:09.844Z,101996.22
2023-04-10T05:18:53.324Z,101993.47
2023-04-10T05:21:56.795Z,102000.06
2023-04-10T05:24:43.988Z,101998.31
2023-04-10T05:27:44.004Z,102001.19
2023-04-10T05:30:30.090Z,101992.41
2023-04-10T05:33:30.110Z,102004.03
2023-04-10T05:36:25.614Z,102001.78
2023-04-10T05:39:03.564Z,102003.56
2023-04-10T05:42:06.646Z,102011.94
2023-04-10T05:44:57.668Z,102001.72
2023-04-10T05:47:39.098Z,102011.78
2023-04-10T05:50:38.938Z,102004.69
2023-04-10T05:53:16.840Z,102007.41
2023-04-10T05:56:05.524Z,102001.63
2023-04-10T05:59:06.574Z,102001.00
2023-04-10T06:02:03.461Z,102006.00
2023-04-10T06:04:31.696Z,102000.75
2023-04-10T06:07:02.269Z,102005.41
2023-04-10T06:09:34.681Z,102001.41
2023-04-10T06:12:02.621Z,101999.19
2023-04-10T06:14:31.531Z,101996.38
2023-04-10T06:16:59.689Z,101997.50
2023-04-10T06:19:27.778Z,102001.16
2023-04-10T06:21:55.885Z,102002.41
2023-04-10T06:24:23.682Z,102002.22
2023-04-10T06:26:53.813Z,102000.13
2023-04-10T06:29:21.498Z,102000.44
2023-04-10T06:31:49.771Z,102004.56
2023-04-10T06:34:17.628Z,101998.72
2023-04-10T06:36:54.900Z,101989.84
2023-04-10T06:39:23.100Z,101996.41
2023-04-10T06:41:50.814Z,101987.19
2023-04-10T06:44:33.903Z,101997.69
2023-04-10T06:47:01.606Z,101988.84
2023-04-10T06:49:29.352Z,101998.13
2023-04-10T06:51:57.259Z,101989.88
2023-04-10T06:54:25.445Z,101986.44
2023-04-10T06:56:53.332Z,101995.59
2023-04-10T06:59:20.980Z,101992.06
2023-04-10T07:01:50.079Z,101987.06
2023-04-10T07:04:17.824Z,101988.25
2023-04-10T07:06:45.482Z,101977.25
2023-04-10T07:09:13.186Z,101980.31
2023-04-10T07:11:41.004Z,101979.34
2023-04-10T07:14:08.728Z,101976.09
2023-04-10T07:16:37.198Z,101982.72
2023-04-10T07:19:06.323Z,101979.78
2023-04-10T07:21:34.050Z,101980.88
2023-04-10T07:24:01.810Z,101981.13
2023-04-10T07:26:29.536Z,101978.81
2023-04-10T07:28:57.281Z,101986.19
2023-04-10T07:31:25.090Z,101985.91
2023-04-10T07:33:52.755Z,101985.06
2023-04-10T07:36:21.803Z,101988.16
2023-04-10T07:38:49.377Z,101979.06
2023-04-10T07:41:17.095Z,101977.09
2023-04-10T07:43:44.869Z,101975.91
2023-04-10T07:46:12.570Z,101979.03
2023-04-10T07:48:40.333Z,101975.66
2023-04-10T07:51:09.313Z,101978.44
2023-04-10T07:53:38.403Z,101979.00
2023-04-10T07:56:06.513Z,101970.72
2023-04-10T07:58:34.188Z,101975.47
2023-04-10T08:01:01.874Z,101970.28
2023-04-10T08:03:29.643Z,101974.66
2023-04-10T08:05:57.371Z,101962.41
2023-04-10T08:08:24.971Z,101960.41
2023-04-10T08:10:54.020Z,101956.66
2023-04-10T08:13:21.761Z,101960.47
2023-04-10T08:15:49.445Z,101958.47
2023-04-10T08:18:17.119Z,101949.81
2023-04-10T08:20:44.739Z,101952.13
2023-04-10T08:23:19.733Z,101954.78
2023-04-10T08:25:48.397Z,101952.28
2023-04-10T08:28:17.372Z,101953.25
2023-04-10T08:30:45.085Z,101951.69
2023-04-10T08:33:12.741Z,101951.50
2023-04-10T08:35:40.394Z,101951.16
2023-04-10T08:38:14.018Z,101954.94
2023-04-10T08:40:44.340Z,101958.75
2023-04-10T08:43:12.062Z,101952.19
2023-04-10T08:45:42.589Z,101945.81
2023-04-10T08:48:10.353Z,101945.09
2023-04-10T08:50:37.975Z,101943.81
2023-04-10T08:53:06.460Z,101944.50
2023-04-10T08:55:34.108Z,101937.78
2023-04-10T08:58:02.062Z,101938.72
2023-04-10T09:00:31.525Z,101939.41
2023-04-10T09:03:00.812Z,101935.88
2023-04-10T09:05:28.893Z,101928.66
2023-04-10T09:07:56.532Z,101931.88
2023-04-10T09:10:24.330Z,101925.75
2023-04-10T09:12:51.936Z,101918.50
2023-04-10T09:15:19.530Z,101916.00
2023-04-10T09:17:57.443Z,101909.31
2023-04-10T09:20:27.690Z,101910.53
2023-04-10T09:22:55.406Z,101894.81
2023-04-10T09:25:29.913Z,101885.94
2023-04-10T09:28:01.468Z,101894.16
2023-04-10T09:30:34.623Z,101886.47
2023-04-10T09:33:03.593Z,101891.44
2023-04-10T09:35:39.401Z,101896.38
2023-04-10T09:38:17.676Z,101888.44
2023-04-10T09:40:45.677Z,101882.38
2023-04-10T09:43:20.360Z,101878.88
2023-04-10T09:45:48.469Z,101863.59
2023-04-10T09:48:16.541Z,101863.94
2023-04-10T09:50:45.582Z,101864.38
2023-04-10T09:53:13.968Z,101861.19
2023-04-10T09:55:41.908Z,101851.44
2023-04-10T09:58:09.898Z,101852.75
2023-04-10T10:00:39.500Z,101848.84
2023-04-10T10:03:08.269Z,101844.19
2023-04-10T10:05:36.577Z,101841.66
2023-04-10T10:08:05.733Z,101836.97
2023-04-10T10:10:33.419Z,101830.59
2023-04-10T10:13:01.443Z,101836.34
2023-04-10T10:15:30.342Z,101828.00
2023-04-10T10:18:06.236Z,101829.81
2023-04-10T10:20:35.412Z,101821.09
2023-04-10T10:23:06.659Z,101818.66
2023-04-10T10:25:34.376Z,101824.72
2023-04-10T10:28:03.377Z,101820.38
2023-04-10T10:30:31.147Z,101811.06
2023-04-10T10:32:59.812Z,101813.81
2023-04-10T10:35:29.659Z,101811.78
2023-04-10T10:37:57.744Z,101809.66
2023-04-10T10:40:28.629Z,101799.13
2023-04-10T10:42:57.504Z,101798.38
2023-04-10T10:45:27.273Z,101787.25
2023-04-10T10:47:55.435Z,101786.25
2023-04-10T10:50:24.636Z,101781.09
2023-04-10T10:52:53.985Z,101776.59
2023-04-10T10:55:34.687Z,101779.03
2023-04-10T10:58:02.781Z,101767.94
2023-04-10T11:00:48.844Z,101767.41
2023-04-10T11:03:28.703Z,101763.84
2023-04-10T11:05:57.175Z,101760.59
2023-04-10T11:08:36.452Z,101759.72
2023-04-10T11:11:06.060Z,101762.84
2023-04-10T11:13:33.984Z,101750.81
2023-04-10T11:16:02.911Z,101750.69
2023-04-10T11:18:56.054Z,101746.81
2023-04-10T11:21:34.186Z,101745.50
2023-04-10T11:24:05.395Z,101736.44
2023-04-10T11:26:43.504Z,101737.97
2023-04-10T11:29:25.988Z,101725.41
2023-04-10T11:31:56.294Z,101734.88
2023-04-10T11:34:24.060Z,101718.56
2023-04-10T11:36:53.286Z,101716.28
2023-04-10T11:39:21.594Z,101717.19
2023-04-10T11:41:51.158Z,101718.00
2023-04-10T11:44:21.089Z,101710.81
2023-04-10T11:46:51.053Z,101697.50
2023-04-10T11:49:20.964Z,101699.44
2023-04-10T11:51:49.136Z,101692.72
2023-04-10T11:54:18.338Z,101695.41
2023-04-10T11:56:46.754Z,101690.28
2023-04-10T11:59:19.718Z,101680.66
2023-04-10T12:01:47.569Z,101674.53
2023-04-10T12:04:16.354Z,101668.53
2023-04-10T12:06:45.103Z,101679.81
2023-04-10T12:09:13.821Z,101669.38
2023-04-10T12:11:49.182Z,101659.19
2023-04-10T12:14:18.392Z,101650.19
2023-04-10T12:16:46.125Z,101654.69
2023-04-10T12:19:13.863Z,101648.31
2023-04-10T12:21:42.338Z,101643.94
2023-04-10T12:24:10.031Z,101631.88
2023-04-10T12:26:37.672Z,101636.06
2023-04-10T12:29:06.307Z,101630.59
2023-04-10T12:31:36.340Z,101641.41
2023-04-10T12:34:05.458Z,101632.59
2023-04-10T12:36:34.859Z,101631.22
2023-04-10T12:39:02.971Z,101619.84
2023-04-10T12:41:31.347Z,101618.38
2023-04-10T12:44:07.973Z,101613.00
2023-04-10T12:46:37.411Z,101609.22
2023-04-10T12:49:11.577Z,101609.50
2023-04-10T12:51:45.970Z,101589.63
2023-04-10T12:54:13.630Z,101594.63
2023-04-10T12:56:44.476Z,101586.25
2023-04-10T12:59:12.619Z,101587.78
2023-04-10T13:01:41.713Z,101579.50
2023-04-10T13:04:09.549Z,101581.50
2023-04-10T13:06:43.311Z,101573.22
2023-04-10T13:09:10.972Z,101563.69
2023-04-10T13:11:38.618Z,101558.19
2023-04-10T13:14:06.294Z,101552.41
2023-04-10T13:16:34.025Z,101543.03
2023-04-10T13:19:03.019Z,101532.78
2023-04-10T13:21:30.648Z,101533.91
2023-04-10T13:23:58.298Z,101515.84
2023-04-10T13:26:25.928Z,101509.63
2023-04-10T13:28:53.882Z,101509.91
2023-04-10T13:31:21.719Z,101504.66
2023-04-10T13:33:49.503Z,101494.00
2023-04-10T13:36:18.556Z,101489.47
2023-04-10T13:38:46.276Z,101478.31
2023-04-10T13:41:13.864Z,101482.91
2023-04-10T13:43:41.516Z,101468.94
2023-04-10T13:46:09.141Z,101466.84
2023-04-10T13:48:41.140Z,101458.69
2023-04-10T13:51:09.065Z,101462.09
2023-04-10T13:53:38.064Z,101464.47
2023-04-10T13:56:06.225Z,101462.34
2023-04-10T13:58:34.415Z,101457.84
2023-04-10T14:01:02.209Z,101455.06
2023-04-10T14:03:30.076Z,101447.84
2023-04-10T14:05:57.828Z,101437.34
2023-04-10T14:08:25.524Z,101440.13
2023-04-10T14:10:54.513Z,101431.78
2023-04-10T14:13:22.118Z,101426.59
2023-04-10T14:15:51.973Z,101427.06
2023-04-10T14:18:19.858Z,101418.59
2023-04-10T14:20:47.540Z,101418.63
2023-04-10T14:23:18.294Z,101420.59
2023-04-10T14:25:46.274Z,101420.03
2023-04-10T14:28:17.968Z,101429.09
2023-04-10T14:30:45.924Z,101423.59
2023-04-10T14:33:13.724Z,101414.88
2023-04-10T14:35:41.469Z,101403.69
2023-04-10T14:38:09.208Z,101396.19
2023-04-10T14:40:37.168Z,101396.34
2023-04-10T14:43:04.917Z,101382.72
2023-04-10T14:45:34.032Z,101384.88
2023-04-10T14:48:02.213Z,101384.22
2023-04-10T14:50:30.450Z,101377.84
2023-04-10T14:52:59.960Z,101375.25
2023-04-10T14:55:27.614Z,101374.66
2023-04-10T14:57:57.901Z,101371.66
2023-04-10T15:00:26.448Z,101357.03
2023-04-10T15:02:57.234Z,101362.13
2023-04-10T15:05:25.388Z,101349.25
2023-04-10T15:07:53.036Z,101353.91
2023-04-10T15:10:20.770Z,101355.75
2023-04-10T15:12:48.425Z,101352.25
2023-04-10T15:15:16.172Z,101343.94
2023-04-10T15:17:43.821Z,101336.91
2023-04-10T15:20:13.231Z,101333.16
2023-04-10T15:22:42.509Z,101336.97
2023-04-10T15:25:11.945Z,101323.69
2023-04-10T15:27:40.101Z,101320.09
2023-04-10T15:30:08.150Z,101326.75
2023-04-10T15:32:37.640Z,101319.22
2023-04-10T15:35:05.679Z,101314.09
2023-04-10T15:37:34.882Z,101316.69
2023-04-10T15:40:04.463Z,101304.78
2023-04-10T15:42:32.273Z,101301.66
2023-04-10T15:44:59.907Z,101294.97
2023-04-10T15:47:27.598Z,101289.88
2023-04-10T15:49:58.103Z,101283.53
2023-04-10T15:52:25.813Z,101278.78
2023-04-10T15:54:54.866Z,101279.56
2023-04-10T15:57:22.438Z,101272.47
2023-04-10T15:59:52.254Z,101268.66
2023-04-10T16:02:19.983Z,101263.81
2023-04-10T16:04:47.729Z,101258.13
2023-04-10T16:07:15.516Z,101249.88
2023-04-10T16:09:43.132Z,101254.25
2023-04-10T16:12:13.493Z,101242.63
2023-04-10T16:14:41.090Z,101234.63
2023-04-10T16:17:08.710Z,101233.06
2023-04-10T16:19:36.367Z,101226.81
2023-04-10T16:22:04.076Z,101220.16
2023-04-10T16:24:32.489Z,101211.94
2023-04-10T16:27:02.106Z,101213.63
2023-04-10T16:29:31.276Z,101220.03
2023-04-10T16:31:58.982Z,101205.06
2023-04-10T16:34:26.601Z,101210.47
2023-04-10T16:36:54.342Z,101207.97
2023-04-10T16:39:22.096Z,101201.63
2023-04-10T16:41:49.773Z,101202.97
2023-04-10T16:44:17.443Z,101198.56
2023-04-10T16:46:46.414Z,101196.50
2023-04-10T16:49:14.106Z,101189.69
2023-04-10T16:51:41.795Z,101195.25
2023-04-10T16:54:09.416Z,101186.19
2023-04-10T16:56:37.096Z,101183.44
2023-04-10T16:59:04.714Z,101183.72
2023-04-10T17:01:34.060Z,101187.59
2023-04-10T17:04:03.219Z,101179.88
2023-04-10T17:06:31.326Z,101173.19
2023-04-10T17:08:59.080Z,101166.16
2023-04-10T17:11:26.768Z,101155.38
2023-04-10T17:13:54.772Z,101156.38
2023-04-10T17:16:22.482Z,101148.00
2023-04-10T17:18:50.251Z,101147.53
2023-04-10T17:21:19.247Z,101148.44
2023-04-10T17:23:46.880Z,101137.59
2023-04-10T17:26:15.092Z,101137.69
2023-04-10T17:28:44.386Z,101134.63
2023-04-10T17:31:12.153Z,101121.56
2023-04-10T17:33:41.649Z,101123.09
2023-04-10T17:36:10.093Z,101122.09
2023-04-10T17:38:39.229Z,101119.22
2023-04-10T17:41:07.139Z,101110.19
2023-04-10T17:43:34.745Z,101107.81
2023-04-10T17:46:02.585Z,101102.97
2023-04-10T17:48:30.359Z,101102.66
2023-04-10T17:50:58.137Z,101103.34
2023-04-10T17:53:25.751Z,101094.88
2023-04-10T17:55:54.745Z,101092.81
2023-04-10T17:58:22.336Z,101092.44
2023-04-10T18:00:50.369Z,101091.91
2023-04-10T18:03:18.121Z,101087.47
2023-04-10T18:05:45.809Z,101094.88
2023-04-10T18:08:14.466Z,101086.88
2023-04-10T18:10:42.063Z,101085.50
2023-04-10T18:13:11.818Z,101083.44
2023-04-10T18:15:39.439Z,101089.06
2023-04-10T18:18:07.149Z,101088.91
2023-04-10T18:20:35.696Z,101087.44
2023-04-10T18:23:04.677Z,101085.13
2023-04-10T18:25:32.399Z,101081.00
2023-04-10T18:28:13.668Z,101085.91
2023-04-10T18:30:43.848Z,101079.19
2023-04-10T18:33:11.721Z,101084.13
2023-04-10T18:35:39.629Z,101081.53
2023-04-10T18:38:07.300Z,101080.50
2023-04-10T18:40:36.808Z,101072.75
2023-04-10T18:43:04.636Z,101081.41
2023-04-10T18:45:33.928Z,101076.88
2023-04-10T18:48:02.976Z,101074.44
2023-04-10T18:50:31.458Z,101072.50
2023-04-10T18:52:59.154Z,101070.50
2023-04-10T18:55:26.803Z,101063.75
2023-04-10T18:57:54.496Z,101065.81
2023-04-10T19:00:22.355Z,101057.91
2023-04-10T19:02:50.097Z,101053.06
2023-04-10T19:05:19.349Z,101049.31
2023-04-10T19:08:00.581Z,101040.22
2023-04-10T19:10:31.139Z,101043.03
2023-04-10T19:12:58.847Z,101041.16
2023-04-10T19:15:26.446Z,101032.19
2023-04-10T19:17:54.533Z,101031.72
2023-04-10T19:20:51.170Z,101022.78
2023-04-10T19:23:11.738Z,101022.91
2023-04-10T19:25:39.406Z,101013.09
2023-04-10T19:28:07.501Z,101018.06
2023-04-10T19:30:35.155Z,101018.19
2023-04-10T19:33:02.896Z,101005.78
2023-04-10T19:35:31.948Z,101006.84
2023-04-10T19:37:59.583Z,101003.91
2023-04-10T19:40:27.299Z,100997.09
2023-04-10T19:42:55.176Z,100991.16
2023-04-10T19:45:27.192Z,100990.31
2023-04-10T19:47:54.892Z,100988.09
2023-04-10T19:50:22.694Z,100984.50
2023-04-10T19:52:52.510Z,100983.19
2023-04-10T19:55:20.187Z,100977.63
2023-04-10T19:57:48.179Z,100978.03
2023-04-10T20:00:15.911Z,100974.00
2023-04-10T20:02:43.872Z,100969.53
2023-04-10T20:05:11.825Z,100967.63
2023-04-10T20:07:39.534Z,100960.00
2023-04-10T20:10:09.398Z,100951.22
2023-04-10T20:12:36.998Z,100945.16
2023-04-10T20:15:05.072Z,100931.78
2023-04-10T20:17:32.728Z,100940.72
2023-04-10T20:20:00.376Z,100922.09
2023-04-10T20:22:28.066Z,100924.91
2023-04-10T20:24:55.758Z,100925.16
2023-04-10T20:27:25.286Z,100916.34
2023-04-10T20:29:53.002Z,100911.72
2023-04-10T20:32:20.662Z,100910.63
2023-04-10T20:34:48.347Z,100902.78
2023-04-10T20:37:21.540Z,100898.63
2023-04-10T20:39:49.231Z,100893.25
2023-04-10T20:42:17.748Z,100887.75
2023-04-10T20:44:46.805Z,100888.59
2023-04-10T20:47:14.514Z,100887.28
2023-04-10T20:49:42.227Z,100892.78
2023-04-10T20:52:09.847Z,100887.84
2023-04-10T20:54:37.511Z,100886.28
2023-04-10T20:57:06.501Z,100885.81
2023-04-10T20:59:35.914Z,100897.63
2023-04-10T21:02:04.969Z,100890.47
2023-04-10T21:04:33.065Z,100880.16
2023-04-10T21:07:00.736Z,100880.69
2023-04-10T21:09:28.386Z,100885.94
2023-04-10T21:11:55.976Z,100881.69
2023-04-10T21:14:23.632Z,100877.63
2023-04-10T21:16:51.389Z,100868.69
2023-04-10T21:19:20.607Z,100865.25
2023-04-10T21:21:48.214Z,100871.59
2023-04-10T21:24:15.892Z,100865.25
2023-04-10T21:26:43.557Z,100865.47
2023-04-10T21:29:11.271Z,100858.06
2023-04-10T21:31:38.913Z,100859.09
2023-04-10T21:34:06.640Z,100858.13
2023-04-10T21:36:35.645Z,100850.66
2023-04-10T21:39:03.281Z,100848.28
2023-04-10T21:41:30.896Z,100848.88
2023-04-10T21:44:00.292Z,100843.31
2023-04-10T21:46:28.078Z,100841.53
2023-04-10T21:48:56.079Z,100840.88
2023-04-10T21:51:25.687Z,100838.97
2023-04-10T21:53:55.839Z,100828.16
2023-04-10T21:56:23.490Z,100816.38
2023-04-10T21:58:53.055Z,100822.44
2023-04-10T22:01:20.990Z,100818.59
2023-04-10T22:03:48.786Z,100806.34
2023-04-10T22:06:16.469Z,100801.50
2023-04-10T22:08:44.603Z,100810.22
2023-04-10T22:11:14.024Z,100799.22
2023-04-10T22:13:41.653Z,100796.03
2023-04-10T22:16:09.563Z,100786.44
2023-04-10T22:18:37.207Z,100776.88
2023-04-10T22:21:04.929Z,100782.31
2023-04-10T22:23:32.608Z,100785.34
2023-04-10T22:26:00.566Z,100781.72
2023-04-10T22:28:29.860Z,100767.13
2023-04-10T22:30:57.590Z,100757.81
2023-04-10T22:33:25.258Z,100753.59
2023-04-10T22:35:53.206Z,100749.09
2023-04-10T22:38:20.869Z,100743.81
2023-04-10T22:40:48.507Z,100738.88
2023-04-10T22:43:16.100Z,100740.19
2023-04-10T22:45:45.210Z,100735.31
2023-04-10T22:48:12.843Z,100733.31
2023-04-10T22:50:40.442Z,100730.09
2023-04-10T22:53:07.996Z,100730.84
2023-04-10T22:55:35.995Z,100723.34
2023-04-10T22:58:03.568Z,100720.66
2023-04-10T23:00:31.211Z,100726.41
2023-04-10T23:03:00.419Z,100725.91
2023-04-10T23:05:28.217Z,100723.56
2023-04-10T23:07:56.001Z,100717.84
2023-04-10T23:10:23.699Z,100718.56
2023-04-10T23:12:51.466Z,100714.75
2023-04-10T23:15:19.160Z,100701.03
2023-04-10T23:17:46.861Z,100702.53
2023-04-10T23:20:16.052Z,100701.16
2023-04-10T23:22:43.649Z,100687.69
2023-04-10T23:25:11.319Z,100689.94
2023-04-10T23:27:39.619Z,100691.66
2023-04-10T23:30:07.797Z,100681.84
2023-04-10T23:32:35.465Z,100674.44
2023-04-10T23:35:03.336Z,100668.09
2023-04-10T23:37:33.746Z,100659.81
2023-04-10T23:40:01.395Z,100646.66
2023-04-10T23:42:29.052Z,100644.44
2023-04-10T23:44:56.748Z,100634.78
2023-04-10T23:47:24.426Z,100631.88
2023-04-10T23:49:52.169Z,100626.16
2023-04-10T23:52:19.819Z,100627.19
2023-04-10T23:54:48.837Z,100619.84
2023-04-10T23:57:16.489Z,100616.06
2023-04-10T23:59:44.121Z,100606.84
